createdAt,value
2018-02-01T00:01:52.873Z,69.90
2018-02-01T00:04:21.866Z,69.90
2018-02-01T00:06:50.732Z,69.90
2018-02-01T00:09:18.927Z,70.00
2018-02-01T00:11:47.835Z,70.00
2018-02-01T00:14:15.947Z,70.00
2018-02-01T00:16:44.058Z,70.10
2018-02-01T00:19:12.954Z,70.00
2018-02-01T00:21:41.835Z,70.00
2018-02-01T00:24:10.715Z,70.00
2018-02-01T00:26:38.879Z,70.00
2018-02-01T00:29:06.990Z,70.00
2018-02-01T00:31:35.087Z,70.00
2018-02-01T00:34:03.422Z,70.00
2018-02-01T00:36:32.302Z,69.90
2018-02-01T00:39:01.204Z,70.40
2018-02-01T00:41:29.327Z,70.00
2018-02-01T00:43:57.442Z,69.90
2018-02-01T00:46:26.311Z,69.90
2018-02-01T00:48:55.952Z,69.90
2018-02-01T00:51:25.040Z,69.70
2018-02-01T00:53:53.920Z,69.80
2018-02-01T00:56:22.804Z,69.90
2018-02-01T00:58:51.010Z,69.90
2018-02-01T01:01:19.114Z,70.00
2018-02-01T01:03:47.250Z,70.00
2018-02-01T01:06:16.114Z,70.10
2018-02-01T01:08:45.720Z,70.10
2018-02-01T01:11:13.830Z,70.10
2018-02-01T01:13:41.983Z,70.00
2018-02-01T01:16:10.858Z,70.10
2018-02-01T01:18:39.737Z,70.70
2018-02-01T01:21:07.844Z,70.00
2018-02-01T01:23:35.944Z,70.10
2018-02-01T01:26:04.053Z,70.20
2018-02-01T01:28:32.156Z,70.30
2018-02-01T01:31:00.331Z,70.20
2018-02-01T01:33:28.459Z,70.10
2018-02-01T01:35:56.670Z,70.10
2018-02-01T01:38:25.542Z,70.30
2018-02-01T01:40:53.646Z,70.30
2018-02-01T01:43:21.798Z,70.20
2018-02-01T01:46:02.719Z,70.40
2018-02-01T01:48:30.816Z,70.40
2018-02-01T01:50:58.921Z,70.30
2018-02-01T01:53:27.911Z,71.20
2018-02-01T01:55:56.904Z,70.70
2018-02-01T01:58:25.785Z,70.60
2018-02-01T02:00:54.683Z,70.90
2018-02-01T02:03:23.579Z,70.90
2018-02-01T02:05:52.470Z,70.80
2018-02-01T02:08:21.327Z,70.70
2018-02-01T02:10:49.531Z,70.70
2018-02-01T02:13:18.415Z,70.60
2018-02-01T02:15:47.295Z,70.60
2018-02-01T02:18:16.445Z,70.70
2018-02-01T02:20:45.291Z,70.90
2018-02-01T02:23:14.163Z,71.00
2018-02-01T02:25:42.459Z,71.00
2018-02-01T02:28:11.332Z,71.10
2018-02-01T02:30:39.435Z,71.10
2018-02-01T02:33:07.579Z,71.10
2018-02-01T02:35:35.747Z,71.10
2018-02-01T02:38:06.711Z,71.60
2018-02-01T02:40:34.883Z,71.80
2018-02-01T02:43:03.807Z,71.30
2018-02-01T02:45:31.935Z,71.30
2018-02-01T02:48:00.839Z,71.10
2018-02-01T02:50:28.945Z,71.10
2018-02-01T02:52:57.063Z,70.90
2018-02-01T02:55:25.950Z,71.30
2018-02-01T02:57:54.079Z,71.30
2018-02-01T03:00:22.383Z,71.20
2018-02-01T03:02:50.493Z,71.80
2018-02-01T03:05:19.387Z,71.30
2018-02-01T03:07:47.491Z,71.20
2018-02-01T03:10:15.614Z,71.00
2018-02-01T03:12:44.510Z,71.30
2018-02-01T03:15:13.391Z,71.00
2018-02-01T03:17:42.298Z,71.40
2018-02-01T03:20:10.398Z,71.40
2018-02-01T03:22:38.644Z,71.00
2018-02-01T03:25:07.571Z,70.80
2018-02-01T03:27:35.679Z,70.90
2018-02-01T03:30:03.784Z,70.90
2018-02-01T03:32:31.956Z,71.50
2018-02-01T03:35:00.066Z,70.80
2018-02-01T03:37:28.187Z,70.90
2018-02-01T03:39:57.083Z,71.00
2018-02-01T03:42:25.963Z,71.20
2018-02-01T03:44:54.884Z,71.00
2018-02-01T03:47:23.023Z,71.00
2018-02-01T03:49:51.135Z,71.00
2018-02-01T03:52:19.275Z,71.10
2018-02-01T03:54:48.218Z,71.30
2018-02-01T03:57:16.293Z,71.30
2018-02-01T03:59:44.403Z,71.10
2018-02-01T04:02:13.267Z,71.70
2018-02-01T04:04:41.414Z,71.70
2018-02-01T04:07:09.586Z,72.10
2018-02-01T04:09:37.694Z,72.10
2018-02-01T04:12:05.797Z,71.80
2018-02-01T04:14:33.926Z,71.80
2018-02-01T04:17:02.042Z,72.00
2018-02-01T04:19:30.147Z,71.80
2018-02-01T04:21:58.252Z,71.70
2018-02-01T04:24:27.171Z,71.40
2018-02-01T04:26:56.118Z,71.20
2018-02-01T04:29:24.232Z,71.20
2018-02-01T04:31:53.102Z,71.70
2018-02-01T04:34:21.223Z,71.70
2018-02-01T04:36:49.359Z,71.30
2018-02-01T04:39:18.226Z,71.20
2018-02-01T04:41:46.356Z,71.20
2018-02-01T04:44:14.465Z,71.30
2018-02-01T04:46:42.578Z,72.20
2018-02-01T04:49:10.806Z,71.50
2018-02-01T04:51:38.906Z,72.00
2018-02-01T04:54:07.782Z,72.50
2018-02-01T04:56:35.898Z,72.50
2018-02-01T04:59:04.070Z,72.20
2018-02-01T05:01:32.182Z,71.80
2018-02-01T05:04:00.290Z,71.70
2018-02-01T05:06:29.174Z,72.20
2018-02-01T05:08:58.056Z,71.40
2018-02-01T05:11:26.252Z,71.30
2018-02-01T05:13:55.144Z,71.40
2018-02-01T05:16:23.266Z,71.40
2018-02-01T05:18:51.370Z,71.60
2018-02-01T05:21:20.254Z,71.90
2018-02-01T05:23:48.452Z,71.90
2018-02-01T05:26:16.570Z,71.90
2018-02-01T05:28:44.669Z,71.40
2018-02-01T05:31:12.784Z,71.40
2018-02-01T05:33:40.912Z,71.30
2018-02-01T05:36:09.032Z,71.40
2018-02-01T05:38:37.134Z,71.80
2018-02-01T05:41:05.322Z,71.80
2018-02-01T05:43:33.432Z,72.10
2018-02-01T05:46:01.564Z,72.60
2018-02-01T05:48:29.668Z,72.60
2018-02-01T05:50:58.557Z,72.80
2018-02-01T05:53:27.442Z,72.80
2018-02-01T05:55:56.329Z,72.50
2018-02-01T05:58:25.217Z,72.70
2018-02-01T06:00:54.094Z,73.00
2018-02-01T06:03:22.204Z,72.90
2018-02-01T06:05:50.331Z,72.80
2018-02-01T06:08:18.636Z,72.50
2018-02-01T06:10:47.505Z,72.60
2018-02-01T06:13:15.634Z,72.60
2018-02-01T06:15:43.800Z,72.90
2018-02-01T06:18:11.922Z,72.30
2018-02-01T06:20:40.040Z,72.80
2018-02-01T06:23:08.149Z,73.20
2018-02-01T06:25:36.262Z,72.90
2018-02-01T06:28:05.159Z,73.00
2018-02-01T06:30:33.272Z,73.10
2018-02-01T06:33:01.424Z,72.90
2018-02-01T06:35:30.276Z,73.10
2018-02-01T06:37:59.163Z,73.10
2018-02-01T06:40:28.098Z,73.10
2018-02-01T06:42:56.240Z,73.10
2018-02-01T06:45:24.362Z,72.80
2018-02-01T06:47:52.525Z,72.70
2018-02-01T06:50:20.635Z,72.90
2018-02-01T06:52:48.831Z,72.90
2018-02-01T06:55:17.780Z,73.30
2018-02-01T06:57:45.887Z,73.30
2018-02-01T07:00:14.883Z,73.50
2018-02-01T07:02:43.780Z,73.50
2018-02-01T07:05:12.154Z,73.50
2018-02-01T07:07:41.039Z,73.40
2018-02-01T07:10:09.931Z,73.30
2018-02-01T07:12:38.801Z,73.20
2018-02-01T07:15:06.933Z,73.10
2018-02-01T07:17:35.059Z,73.20
2018-02-01T07:20:03.943Z,73.10
2018-02-01T07:22:32.834Z,73.20
2018-02-01T07:25:01.711Z,72.90
2018-02-01T07:27:29.907Z,72.90
2018-02-01T07:29:58.774Z,72.90
2018-02-01T07:32:27.087Z,72.80
2018-02-01T07:34:55.203Z,73.50
2018-02-01T07:37:23.339Z,72.70
2018-02-01T07:39:51.443Z,72.80
2018-02-01T07:42:19.555Z,72.80
2018-02-01T07:44:47.746Z,72.70
2018-02-01T07:47:15.883Z,72.90
2018-02-01T07:49:43.987Z,72.90
2018-02-01T07:52:12.114Z,73.00
2018-02-01T07:54:40.218Z,72.90
2018-02-01T07:57:09.147Z,72.90
2018-02-01T07:59:37.300Z,72.90
2018-02-01T08:02:05.463Z,72.70
2018-02-01T08:04:34.420Z,72.60
2018-02-01T08:07:02.551Z,72.60
2018-02-01T08:09:30.728Z,72.40
2018-02-01T08:11:58.842Z,72.30
2018-02-01T08:14:26.959Z,72.40
2018-02-01T08:16:55.208Z,72.10
2018-02-01T08:19:23.339Z,72.20
2018-02-01T08:21:51.442Z,72.20
2018-02-01T08:24:19.565Z,72.90
2018-02-01T08:26:47.740Z,72.50
2018-02-01T08:29:15.850Z,72.20
2018-02-01T08:31:43.961Z,72.20
2018-02-01T08:34:12.076Z,72.70
2018-02-01T08:36:40.240Z,72.10
2018-02-01T08:39:08.376Z,71.90
2018-02-01T08:41:37.264Z,71.80
2018-02-01T08:44:05.374Z,71.80
2018-02-01T08:46:33.604Z,72.30
2018-02-01T08:49:02.486Z,71.90
2018-02-01T08:51:31.362Z,71.60
2018-02-01T08:53:59.683Z,71.60
2018-02-01T08:56:27.889Z,71.60
2018-02-01T08:58:56.008Z,71.30
2018-02-01T09:01:24.880Z,71.10
2018-02-01T09:03:53.075Z,71.10
2018-02-01T09:06:22.034Z,71.10
2018-02-01T09:08:50.195Z,71.10
2018-02-01T09:11:18.410Z,71.30
2018-02-01T09:13:47.287Z,71.30
2018-02-01T09:16:16.220Z,71.80
2018-02-01T09:18:44.367Z,71.30
2018-02-01T09:21:13.243Z,71.30
2018-02-01T09:23:42.147Z,71.50
2018-02-01T09:26:11.045Z,71.50
2018-02-01T09:28:39.991Z,71.20
2018-02-01T09:31:08.087Z,71.20
2018-02-01T09:33:36.963Z,71.10
2018-02-01T09:36:05.127Z,71.10
2018-02-01T09:38:33.311Z,71.60
2018-02-01T09:41:01.403Z,70.50
2018-02-01T09:43:30.299Z,71.30
2018-02-01T09:45:58.423Z,71.20
2018-02-01T09:48:26.879Z,71.70
2018-02-01T09:50:55.020Z,71.50
2018-02-01T09:53:23.891Z,71.70
2018-02-01T09:55:53.519Z,71.40
2018-02-01T09:58:22.507Z,71.30
2018-02-01T10:00:51.395Z,71.40
2018-02-01T10:03:20.277Z,70.90
2018-02-01T10:05:48.467Z,70.90
2018-02-01T10:08:17.367Z,71.70
2018-02-01T10:10:45.629Z,71.10
2018-02-01T10:13:14.511Z,71.10
2018-02-01T10:15:42.629Z,71.10
2018-02-01T10:18:10.875Z,71.20
2018-02-01T10:20:39.755Z,70.90
2018-02-01T10:23:08.663Z,70.80
2018-02-01T10:25:36.911Z,70.90
2018-02-01T10:28:05.921Z,71.10
2018-02-01T10:30:34.803Z,71.10
2018-02-01T10:33:03.686Z,70.80
2018-02-01T10:35:32.601Z,71.20
2018-02-01T10:38:00.735Z,71.10
2018-02-01T10:40:28.932Z,71.20
2018-02-01T10:42:57.799Z,71.30
2018-02-01T10:45:25.907Z,71.30
2018-02-01T10:47:54.182Z,71.40
2018-02-01T10:50:22.303Z,71.60
2018-02-01T10:52:50.434Z,71.70
2018-02-01T10:55:18.557Z,71.60
2018-02-01T10:57:46.714Z,71.60
2018-02-01T11:00:15.114Z,71.60
2018-02-01T11:02:43.217Z,71.80
2018-02-01T11:05:11.338Z,71.80
2018-02-01T11:07:39.503Z,71.90
2018-02-01T11:10:07.666Z,71.80
2018-02-01T11:12:35.772Z,71.70
2018-02-01T11:15:03.879Z,71.70
2018-02-01T11:17:32.013Z,72.40
2018-02-01T11:20:01.854Z,71.80
2018-02-01T11:22:30.732Z,71.80
2018-02-01T11:24:58.928Z,71.90
2018-02-01T11:27:27.200Z,71.90
2018-02-01T11:29:56.082Z,72.20
2018-02-01T11:32:24.974Z,72.40
2018-02-01T11:34:53.850Z,72.50
2018-02-01T11:37:21.972Z,72.50
2018-02-01T11:39:50.227Z,72.50
2018-02-01T11:42:18.390Z,72.30
2018-02-01T11:44:47.294Z,72.30
2018-02-01T11:47:16.300Z,72.40
2018-02-01T11:49:44.460Z,72.30
2018-02-01T11:52:12.601Z,72.60
2018-02-01T11:54:41.472Z,72.70
2018-02-01T11:57:09.580Z,72.70
2018-02-01T11:59:38.678Z,72.90
2018-02-01T12:02:13.122Z,73.80
2018-02-01T12:04:41.468Z,73.00
2018-02-01T12:07:10.371Z,72.90
2018-02-01T12:09:38.494Z,72.90
2018-02-01T12:12:06.666Z,73.00
2018-02-01T12:14:34.776Z,72.50
2018-02-01T12:17:03.656Z,72.50
2018-02-01T12:19:32.574Z,73.10
2018-02-01T12:22:00.702Z,72.40
2018-02-01T12:24:28.800Z,72.10
2018-02-01T12:26:57.826Z,72.20
2018-02-01T12:29:26.192Z,72.00
2018-02-01T12:31:54.293Z,71.80
2018-02-01T12:34:22.397Z,71.50
2018-02-01T12:36:50.552Z,71.20
2018-02-01T12:39:18.708Z,71.30
2018-02-01T12:41:46.816Z,71.00
2018-02-01T12:44:15.684Z,70.70
2018-02-01T12:46:43.911Z,71.20
2018-02-01T12:49:12.179Z,70.80
2018-02-01T12:51:41.044Z,70.70
2018-02-01T12:54:09.918Z,71.00
2018-02-01T12:56:38.047Z,71.10
2018-02-01T12:59:06.155Z,70.60
2018-02-01T13:01:34.248Z,70.80
2018-02-01T13:04:02.547Z,70.80
2018-02-01T13:06:31.423Z,70.10
2018-02-01T13:09:00.323Z,70.20
2018-02-01T13:11:29.217Z,70.40
2018-02-01T13:13:58.311Z,69.80
2018-02-01T13:16:27.199Z,70.50
2018-02-01T13:18:56.059Z,70.70
2018-02-01T13:21:24.172Z,70.70
2018-02-01T13:23:53.156Z,70.60
2018-02-01T13:26:22.043Z,70.40
2018-02-01T13:28:50.925Z,70.40
2018-02-01T13:31:19.055Z,70.50
2018-02-01T13:33:47.159Z,70.00
2018-02-01T13:36:15.343Z,71.10
2018-02-01T13:38:44.251Z,69.60
2018-02-01T13:41:13.175Z,69.70
2018-02-01T13:43:41.285Z,69.70
2018-02-01T13:46:09.455Z,69.40
2018-02-01T13:48:37.563Z,68.60
2018-02-01T13:51:05.667Z,68.30
2018-02-01T13:53:33.903Z,68.90
2018-02-01T13:56:02.819Z,69.30
2018-02-01T13:58:30.919Z,69.40
2018-02-01T14:00:59.126Z,69.30
2018-02-01T14:03:28.025Z,70.10
2018-02-01T14:05:57.112Z,69.10
2018-02-01T14:08:25.974Z,68.10
2018-02-01T14:10:54.091Z,68.00
2018-02-01T14:13:22.315Z,68.70
2018-02-01T14:15:50.479Z,68.80
2018-02-01T14:18:18.583Z,69.00
2018-02-01T14:20:46.707Z,68.20
2018-02-01T14:23:15.241Z,69.00
2018-02-01T14:25:44.143Z,67.70
2018-02-01T14:28:13.047Z,66.40
2018-02-01T14:30:41.161Z,66.40
2018-02-01T14:33:09.321Z,66.60
2018-02-01T14:35:37.654Z,65.90
2018-02-01T14:38:06.527Z,65.80
2018-02-01T14:40:34.753Z,65.80
2018-02-01T14:43:02.877Z,65.90
2018-02-01T14:45:31.036Z,67.00
2018-02-01T14:47:59.164Z,66.80
2018-02-01T14:50:27.283Z,65.60
2018-02-01T14:52:55.591Z,66.00
2018-02-01T14:55:24.478Z,65.40
2018-02-01T14:57:53.357Z,64.90
2018-02-01T15:00:22.617Z,64.70
2018-02-01T15:02:50.778Z,65.10
2018-02-01T15:05:18.904Z,64.30
2018-02-01T15:07:47.789Z,65.00
2018-02-01T15:10:17.392Z,65.20
2018-02-01T15:12:45.515Z,65.40
2018-02-01T15:15:13.772Z,65.90
2018-02-01T15:17:42.642Z,66.10
2018-02-01T15:20:11.566Z,66.30
2018-02-01T15:22:40.438Z,66.30
2018-02-01T15:25:08.560Z,66.30
2018-02-01T15:27:36.714Z,66.60
2018-02-01T15:30:04.840Z,65.80
2018-02-01T15:32:33.766Z,65.70
2018-02-01T15:35:01.886Z,65.70
2018-02-01T15:37:30.078Z,64.90
2018-02-01T15:39:58.946Z,66.40
2018-02-01T15:42:27.056Z,66.40
2018-02-01T15:44:55.222Z,66.60
2018-02-01T15:47:23.356Z,66.50
2018-02-01T15:49:51.457Z,66.60
2018-02-01T15:52:20.329Z,66.20
2018-02-01T15:54:48.489Z,66.10
2018-02-01T15:57:16.594Z,66.70
2018-02-01T15:59:44.721Z,67.00
2018-02-01T16:02:12.870Z,67.00
2018-02-01T16:04:41.020Z,67.50
2018-02-01T16:07:09.230Z,66.90
2018-02-01T16:09:37.388Z,66.90
2018-02-01T16:12:05.499Z,67.80
2018-02-01T16:14:33.620Z,66.70
2018-02-01T16:17:01.788Z,66.90
2018-02-01T16:19:29.884Z,66.50
2018-02-01T16:21:57.996Z,66.60
2018-02-01T16:24:26.134Z,66.70
2018-02-01T16:26:54.368Z,66.50
2018-02-01T16:29:23.256Z,65.80
2018-02-01T16:31:52.122Z,65.20
2018-02-01T16:34:20.248Z,65.10
2018-02-01T16:36:49.342Z,65.80
2018-02-01T16:39:17.512Z,66.00
2018-02-01T16:41:45.617Z,66.00
2018-02-01T16:44:13.792Z,66.40
2018-02-01T16:46:41.917Z,66.50
2018-02-01T16:49:10.054Z,66.60
2018-02-01T16:51:38.131Z,66.20
2018-02-01T16:54:06.338Z,66.70
2018-02-01T16:56:34.451Z,66.60
2018-02-01T16:59:02.705Z,66.50
2018-02-01T17:01:30.843Z,66.90
2018-02-01T17:03:59.713Z,66.90
2018-02-01T17:06:27.941Z,66.90
2018-02-01T17:08:56.083Z,66.80
2018-02-01T17:11:24.959Z,67.10
2018-02-01T17:13:53.063Z,67.10
2018-02-01T17:16:21.215Z,66.90
2018-02-01T17:18:50.111Z,67.10
2018-02-01T17:21:18.981Z,67.00
2018-02-01T17:23:47.171Z,67.00
2018-02-01T17:26:16.064Z,67.10
2018-02-01T17:28:44.951Z,67.50
2018-02-01T17:31:13.832Z,67.60
2018-02-01T17:33:42.699Z,67.50
2018-02-01T17:36:10.834Z,67.50
2018-02-01T17:38:38.924Z,67.50
2018-02-01T17:41:07.053Z,67.40
2018-02-01T17:43:35.919Z,67.60
2018-02-01T17:46:04.042Z,67.60
2018-02-01T17:48:32.179Z,68.00
2018-02-01T17:51:01.055Z,67.90
2018-02-01T17:53:29.944Z,68.10
2018-02-01T17:55:58.827Z,68.10
2018-02-01T17:58:27.742Z,68.00
2018-02-01T18:00:56.650Z,68.10
2018-02-01T18:03:24.750Z,67.90
2018-02-01T18:05:52.977Z,68.00
2018-02-01T18:08:21.975Z,68.10
2018-02-01T18:10:50.083Z,68.00
2018-02-01T18:13:18.191Z,68.00
2018-02-01T18:15:46.359Z,68.00
2018-02-01T18:18:14.470Z,68.00
2018-02-01T18:20:42.578Z,68.10
2018-02-01T18:23:10.743Z,67.90
2018-02-01T18:25:38.916Z,67.90
2018-02-01T18:28:07.042Z,68.00
2018-02-01T18:30:35.946Z,68.00
2018-02-01T18:33:04.051Z,68.00
2018-02-01T18:35:32.158Z,68.00
2018-02-01T18:38:00.278Z,67.90
2018-02-01T18:40:28.404Z,67.90
2018-02-01T18:42:56.611Z,68.00
2018-02-01T18:45:24.724Z,68.10
2018-02-01T18:47:52.886Z,68.00
2018-02-01T18:50:21.034Z,67.90
2018-02-01T18:52:49.151Z,68.00
2018-02-01T18:55:17.464Z,68.00
2018-02-01T18:57:46.362Z,68.20
2018-02-01T19:00:15.250Z,68.20
2018-02-01T19:02:44.144Z,68.30
2018-02-01T19:05:13.015Z,68.30
2018-02-01T19:07:42.022Z,68.10
2018-02-01T19:10:10.912Z,68.20
2018-02-01T19:12:39.786Z,68.30
2018-02-01T19:15:08.730Z,69.00
2018-02-01T19:17:37.800Z,68.40
2018-02-01T19:20:05.897Z,68.30
2018-02-01T19:22:34.012Z,68.20
2018-02-01T19:25:02.289Z,68.10
2018-02-01T19:27:30.377Z,68.20
2018-02-01T19:29:59.252Z,68.40
2018-02-01T19:32:27.411Z,68.40
2018-02-01T19:34:55.519Z,68.50
2018-02-01T19:37:23.675Z,68.50
2018-02-01T19:39:52.580Z,68.50
2018-02-01T19:42:21.476Z,68.40
2018-02-01T19:44:49.665Z,68.40
2018-02-01T19:47:17.771Z,68.50
2018-02-01T19:49:45.887Z,68.40
2018-02-01T19:52:14.890Z,68.50
2018-02-01T19:54:43.014Z,68.50
2018-02-01T19:57:11.117Z,68.50
2018-02-01T19:59:39.999Z,68.60
2018-02-01T20:02:09.012Z,68.70
2018-02-01T20:04:37.883Z,68.80
2018-02-01T20:07:06.755Z,68.70
2018-02-01T20:09:34.879Z,68.70
2018-02-01T20:12:03.035Z,68.70
2018-02-01T20:14:31.099Z,68.50
2018-02-01T20:16:59.972Z,68.30
2018-02-01T20:19:28.103Z,68.40
2018-02-01T20:21:56.347Z,68.40
2018-02-01T20:24:24.447Z,68.40
2018-02-01T20:26:52.683Z,68.50
2018-02-01T20:29:21.551Z,68.90
2018-02-01T20:31:49.853Z,68.90
2018-02-01T20:34:18.715Z,68.80
2018-02-01T20:36:46.819Z,68.80
2018-02-01T20:39:14.979Z,68.70
2018-02-01T20:41:43.867Z,68.80
2018-02-01T20:44:12.767Z,69.00
2018-02-01T20:46:41.631Z,68.90
2018-02-01T20:49:09.739Z,68.90
2018-02-01T20:51:37.858Z,68.70
2018-02-01T20:54:05.970Z,68.90
2018-02-01T20:56:34.843Z,68.80
2018-02-01T20:59:03.034Z,68.80
2018-02-01T21:01:31.967Z,68.90
2018-02-01T21:04:00.071Z,68.90
2018-02-01T21:06:28.279Z,68.90
2018-02-01T21:08:56.418Z,69.00
2018-02-01T21:11:26.055Z,68.90
2018-02-01T21:13:54.934Z,69.00
2018-02-01T21:16:23.821Z,69.20
2018-02-01T21:18:51.995Z,69.20
2018-02-01T21:21:21.106Z,69.60
2018-02-01T21:23:49.974Z,68.90
2018-02-01T21:26:18.846Z,68.50
2018-02-01T21:28:47.023Z,69.00
2018-02-01T21:31:15.141Z,69.10
2018-02-01T21:33:43.298Z,69.00
2018-02-01T21:36:12.171Z,69.10
2018-02-01T21:38:40.366Z,69.10
2018-02-01T21:41:08.530Z,69.10
2018-02-01T21:43:37.415Z,69.50
2018-02-01T21:46:06.290Z,69.50
2018-02-01T21:48:34.414Z,69.50
2018-02-01T21:51:02.566Z,69.50
2018-02-01T21:53:30.734Z,69.60
2018-02-01T21:55:59.628Z,69.60
2018-02-01T21:58:28.518Z,70.40
2018-02-01T22:00:56.644Z,69.60
2018-02-01T22:03:24.745Z,69.70
2018-02-01T22:05:53.648Z,69.80
2018-02-01T22:08:22.546Z,69.60
2018-02-01T22:10:50.700Z,69.60
2018-02-01T22:13:19.602Z,69.80
2018-02-01T22:15:48.478Z,69.70
2018-02-01T22:18:17.352Z,69.80
2018-02-01T22:20:45.493Z,69.70
2018-02-01T22:23:13.606Z,69.80
2018-02-01T22:25:41.718Z,69.80
2018-02-01T22:28:09.838Z,70.60
2018-02-01T22:30:37.974Z,69.90
2018-02-01T22:33:06.100Z,69.90
2018-02-01T22:35:34.986Z,69.40
2018-02-01T22:38:03.871Z,70.70
2018-02-01T22:40:32.048Z,69.80
2018-02-01T22:43:00.984Z,70.50
2018-02-01T22:45:29.098Z,69.80
2018-02-01T22:47:57.209Z,69.90
2018-02-01T22:50:26.020Z,69.70
2018-02-01T22:52:54.180Z,70.00
2018-02-01T22:55:22.338Z,70.00
2018-02-01T22:57:50.460Z,70.10
2018-02-01T23:00:18.580Z,70.20
2018-02-01T23:02:47.472Z,70.20
2018-02-01T23:05:16.350Z,70.20
2018-02-01T23:07:45.260Z,70.30
2018-02-01T23:10:14.128Z,70.30
2018-02-01T23:12:43.012Z,71.10
2018-02-01T23:15:11.120Z,70.40
2018-02-01T23:17:39.223Z,70.20
2018-02-01T23:20:07.349Z,70.30
2018-02-01T23:22:36.264Z,70.40
2018-02-01T23:25:04.360Z,70.40
2018-02-01T23:27:32.473Z,70.40
2018-02-01T23:30:01.348Z,70.70
2018-02-01T23:32:29.559Z,70.60
2018-02-01T23:34:57.689Z,70.70
2018-02-01T23:37:25.796Z,70.70
2018-02-01T23:39:53.903Z,70.80
2018-02-01T23:42:22.051Z,70.80
2018-02-01T23:44:50.155Z,70.70
2018-02-01T23:47:18.273Z,70.70
2018-02-01T23:49:46.555Z,70.70
2018-02-01T23:52:15.491Z,70.70
2018-02-01T23:54:43.635Z,70.80
2018-02-01T23:57:11.739Z,70.80
2018-02-01T23:59:40.535Z,70.80
